TimePDT,TemperatureF,Dew PointF,Humidity,Sea Level PressureIn,VisibilityMPH,Wind Direction,Wind SpeedMPH,Gust SpeedMPH,PrecipitationIn,Events,Conditions,WindDirDegrees,DateUTC
12:56 AM,68.0,62.1,81,30.08,10.0,South,5.8,-,N/A,,Overcast,190,2013-08-30 07:56:00
1:56 AM,68.0,61.0,78,30.08,10.0,South,6.9,-,0.00,Rain,Light Rain,190,2013-08-30 08:56:00
2:56 AM,66.9,62.1,84,30.09,10.0,Calm,Calm,-,0.00,,Overcast,0,2013-08-30 09:56:00
3:56 AM,66.9,61.0,81,30.09,10.0,SW,4.6,-,N/A,,Overcast,220,2013-08-30 10:56:00
4:56 AM,64.9,62.1,90,30.09,10.0,SE,3.5,-,N/A,,Mostly Cloudy,140,2013-08-30 11:56:00
5:56 AM,63.0,61.0,93,30.11,10.0,SSE,4.6,-,N/A,,Mostly Cloudy,150,2013-08-30 12:56:00
6:56 AM,63.0,61.0,93,30.12,10.0,Calm,Calm,-,N/A,,Partly Cloudy,0,2013-08-30 13:56:00
7:56 AM,64.9,63.0,93,30.14,10.0,Calm,Calm,-,N/A,,Mostly Cloudy,0,2013-08-30 14:56:00
8:21 AM,66.2,62.6,88,30.14,10.0,East,3.5,-,N/A,,Mostly Cloudy,100,2013-08-30 15:21:00
8:56 AM,68.0,62.1,81,30.14,10.0,SE,3.5,-,N/A,,Mostly Cloudy,130,2013-08-30 15:56:00
9:56 AM,71.1,57.9,63,30.14,10.0,Calm,Calm,-,N/A,,Partly Cloudy,0,2013-08-30 16:56:00
10:56 AM,73.0,57.9,59,30.14,10.0,Calm,Calm,-,N/A,,Mostly Cloudy,0,2013-08-30 17:56:00
11:56 AM,75.0,57.9,55,30.12,10.0,Calm,Calm,-,N/A,,Mostly Cloudy,0,2013-08-30 18:56:00
12:56 PM,77.0,57.0,50,30.11,10.0,NNE,3.5,-,N/A,,Overcast,30,2013-08-30 19:56:00
1:56 PM,78.1,57.0,48,30.09,10.0,Calm,Calm,-,N/A,,Scattered Clouds,0,2013-08-30 20:56:00
2:56 PM,80.1,55.9,43,30.07,10.0,Calm,Calm,-,N/A,,Mostly Cloudy,0,2013-08-30 21:56:00
3:56 PM,82.0,55.0,39,30.05,10.0,Variable,4.6,-,N/A,,Scattered Clouds,0,2013-08-30 22:56:00
4:56 PM,84.0,55.0,37,30.04,10.0,NE,8.1,-,N/A,,Mostly Cloudy,50,2013-08-30 23:56:00
5:56 PM,82.9,54.0,37,30.03,10.0,Variable,4.6,-,N/A,,Scattered Clouds,0,2013-08-31 00:56:00
6:56 PM,80.1,54.0,40,30.02,10.0,NNW,10.4,-,N/A,,Mostly Cloudy,330,2013-08-31 01:56:00
7:56 PM,75.9,55.9,50,30.03,10.0,NW,8.1,-,N/A,,Clear,310,2013-08-31 02:56:00
8:56 PM,72.0,55.9,57,30.04,10.0,NW,6.9,-,N/A,,Clear,310,2013-08-31 03:56:00
9:56 PM,70.0,57.0,63,30.04,10.0,NNW,4.6,-,N/A,,Clear,330,2013-08-31 04:56:00
10:56 PM,68.0,57.0,68,30.04,10.0,North,4.6,-,N/A,,Clear,10,2013-08-31 05:56:00
11:56 PM,66.9,57.0,70,30.03,10.0,North,3.5,-,N/A,,Clear,350,2013-08-31 06:56:00